BUX weather

Bunia Airport
Orientale Province, Congo (Kinshasa)

Public forecast

Using degrees Celsius for public forecast. Weather courtesy of forecast.io.

Closest aviation weather report (METAR) to Bunia Airport

Report is more than 6 hours old.

Closest report is Kasese Airport, 83.3 nm (154.3 km) S. Retrieved 2020/05/21 14:00 UTC (2 months ago):

HUKS 211400Z 11002KT 9999 FEW030 FEW033CB 31/18 Q1014

Closest aviation forecast (TAF) to Bunia Airport

Closest forecast is Entebbe International Airport, 161.8 nm (299.6 km) SE. Retrieved 2020-07-16 00:00 UTC (4 hours ago):

TAF HUEN 152300Z 1600/1706 18008KT 9999 FEW022 FEW024CB FM 160000 04005KT FEW019 TEMPO 1603/1609 VRB10KT 8000 BKN017 FEW019CB OVC090 FM 162000 24008KT FEW020 FEW022CB